createdAt,value
2019-02-21T00:02:18.007Z,40.67
2019-02-21T00:04:46.575Z,37.67
2019-02-21T00:07:16.667Z,43.67
2019-02-21T00:09:45.369Z,45.63
2019-02-21T00:12:15.420Z,45.27
2019-02-21T00:14:43.922Z,45.43
2019-02-21T00:17:12.573Z,52.37
2019-02-21T00:19:41.205Z,45.67
2019-02-21T00:22:09.768Z,45.90
2019-02-21T00:24:40.015Z,44.10
2019-02-21T00:27:08.811Z,40.63
2019-02-21T00:29:37.372Z,31.77
2019-02-21T00:32:06.031Z,41.67
2019-02-21T00:34:34.776Z,44.37
2019-02-21T00:37:03.357Z,44.60
2019-02-21T00:39:31.869Z,42.73
2019-02-21T00:42:00.445Z,39.83
2019-02-21T00:44:28.921Z,36.03
2019-02-21T00:46:57.454Z,31.53
2019-02-21T00:49:26.013Z,41.73
2019-02-21T00:51:54.732Z,41.13
2019-02-21T00:54:23.389Z,41.50
2019-02-21T00:56:51.950Z,42.97
2019-02-21T00:59:20.501Z,41.60
2019-02-21T01:01:49.029Z,42.77
2019-02-21T01:04:17.648Z,36.23
2019-02-21T01:06:46.216Z,37.43
2019-02-21T01:09:14.939Z,35.33
2019-02-21T01:11:43.513Z,42.07
2019-02-21T01:14:12.072Z,40.20
2019-02-21T01:16:40.660Z,40.47
2019-02-21T01:19:09.300Z,42.87
2019-02-21T01:21:39.292Z,42.80
2019-02-21T01:24:07.953Z,42.93
2019-02-21T01:26:36.705Z,36.43
2019-02-21T01:29:05.412Z,32.93
2019-02-21T01:31:36.410Z,39.30
2019-02-21T01:34:05.086Z,40.90
2019-02-21T01:36:33.709Z,40.27
2019-02-21T01:39:02.229Z,42.13
2019-02-21T01:41:30.781Z,40.67
2019-02-21T01:43:59.339Z,41.37
2019-02-21T01:46:27.940Z,35.40
2019-02-21T01:48:56.503Z,40.57
2019-02-21T01:51:25.066Z,37.80
2019-02-21T01:53:53.590Z,43.57
2019-02-21T01:56:22.091Z,43.90
2019-02-21T01:58:50.599Z,40.87
2019-02-21T02:01:20.749Z,45.80
2019-02-21T02:03:49.359Z,51.53
2019-02-21T02:06:17.978Z,55.60
2019-02-21T02:08:46.730Z,54.60
2019-02-21T02:11:15.378Z,61.17
2019-02-21T02:13:43.923Z,61.13
2019-02-21T02:16:12.583Z,55.47
2019-02-21T02:18:41.543Z,55.20
2019-02-21T02:21:10.174Z,53.37
2019-02-21T02:23:38.697Z,45.33
2019-02-21T02:26:07.326Z,49.90
2019-02-21T02:28:35.917Z,45.50
2019-02-21T02:31:04.585Z,46.53
2019-02-21T02:33:33.218Z,43.20
2019-02-21T02:36:01.786Z,43.37
2019-02-21T02:38:30.381Z,41.50
2019-02-21T02:41:02.780Z,43.10
2019-02-21T02:43:31.284Z,40.77
2019-02-21T02:45:59.872Z,37.90
2019-02-21T02:48:28.347Z,44.20
2019-02-21T02:50:56.903Z,40.93
2019-02-21T02:53:25.441Z,40.77
2019-02-21T02:55:54.051Z,39.17
2019-02-21T02:58:22.674Z,36.20
2019-02-21T03:00:51.506Z,33.47
2019-02-21T03:03:20.123Z,37.33
2019-02-21T03:05:48.809Z,36.47
2019-02-21T03:08:17.337Z,33.67
2019-02-21T03:10:46.035Z,35.90
2019-02-21T03:13:14.578Z,33.53
2019-02-21T03:15:43.199Z,38.50
2019-02-21T03:18:11.675Z,37.87
2019-02-21T03:20:40.160Z,38.63
2019-02-21T03:23:08.830Z,45.07
2019-02-21T03:25:37.385Z,49.03
2019-02-21T03:28:06.001Z,43.90
2019-02-21T03:30:34.533Z,45.83
2019-02-21T03:33:03.127Z,43.40
2019-02-21T03:35:32.006Z,42.57
2019-02-21T03:38:00.601Z,39.70
2019-02-21T03:40:29.164Z,42.07
2019-02-21T03:42:57.645Z,38.17
2019-02-21T03:45:26.292Z,42.97
2019-02-21T03:47:54.854Z,39.47
2019-02-21T03:50:23.408Z,40.90
2019-02-21T03:52:51.995Z,44.20
2019-02-21T03:55:20.582Z,45.10
2019-02-21T03:57:49.179Z,36.27
2019-02-21T04:00:17.855Z,41.30
2019-02-21T04:02:46.540Z,38.97
2019-02-21T04:05:15.244Z,41.90
2019-02-21T04:07:43.771Z,40.47
2019-02-21T04:10:12.412Z,41.83
2019-02-21T04:12:40.907Z,43.87
2019-02-21T04:15:12.193Z,41.50
2019-02-21T04:17:40.757Z,40.27
2019-02-21T04:20:10.080Z,42.87
2019-02-21T04:22:38.669Z,40.63
2019-02-21T04:25:09.341Z,38.60
2019-02-21T04:27:37.898Z,40.27
2019-02-21T04:30:07.758Z,39.50
2019-02-21T04:32:36.318Z,38.80
2019-02-21T04:35:05.733Z,38.37
2019-02-21T04:37:34.442Z,40.23
2019-02-21T04:40:03.005Z,41.70
2019-02-21T04:42:31.629Z,41.53
2019-02-21T04:45:00.549Z,38.17
2019-02-21T04:47:29.429Z,32.57
2019-02-21T04:49:57.932Z,39.93
2019-02-21T04:52:26.503Z,34.40
2019-02-21T04:54:55.162Z,42.03
2019-02-21T04:57:23.711Z,37.70
2019-02-21T04:59:52.370Z,39.00
2019-02-21T05:02:29.195Z,35.50
2019-02-21T05:04:51.311Z,37.87
2019-02-21T05:07:19.978Z,40.87
2019-02-21T05:09:57.276Z,38.07
2019-02-21T05:12:18.676Z,39.23
2019-02-21T05:14:47.220Z,37.57
2019-02-21T05:17:15.814Z,42.03
2019-02-21T05:19:44.433Z,45.07
2019-02-21T05:22:13.021Z,35.70
2019-02-21T05:24:41.585Z,43.77
2019-02-21T05:27:17.802Z,48.90
2019-02-21T05:29:46.357Z,44.70
2019-02-21T05:32:22.226Z,44.87
2019-02-21T05:34:58.152Z,43.13
2019-02-21T05:37:40.472Z,43.30
2019-02-21T05:40:28.325Z,41.43
2019-02-21T05:43:15.632Z,48.87
2019-02-21T05:45:48.870Z,46.87
2019-02-21T05:48:22.004Z,41.67
2019-02-21T05:50:52.136Z,45.33
2019-02-21T05:53:24.829Z,40.47
2019-02-21T05:55:57.700Z,40.43
2019-02-21T05:58:39.743Z,48.97
2019-02-21T06:01:12.514Z,42.47
2019-02-21T06:03:54.919Z,46.40
2019-02-21T06:06:25.099Z,47.90
2019-02-21T06:09:01.116Z,53.47
2019-02-21T06:11:47.449Z,49.53
2019-02-21T06:14:23.237Z,43.70
2019-02-21T06:17:08.681Z,50.50
2019-02-21T06:19:57.161Z,48.10
2019-02-21T06:22:43.788Z,52.17
2019-02-21T06:25:13.992Z,48.80
2019-02-21T06:27:44.168Z,50.60
2019-02-21T06:30:14.406Z,53.13
2019-02-21T06:32:43.035Z,51.07
2019-02-21T06:35:12.079Z,52.40
2019-02-21T06:37:40.670Z,47.17
2019-02-21T06:40:09.320Z,53.13
2019-02-21T06:42:37.885Z,49.30
2019-02-21T06:45:07.040Z,50.20
2019-02-21T06:47:35.594Z,50.30
2019-02-21T06:50:05.428Z,48.30
2019-02-21T06:52:34.022Z,47.50
2019-02-21T06:55:02.757Z,47.10
2019-02-21T06:57:31.490Z,41.03
2019-02-21T07:00:00.218Z,48.93
2019-02-21T07:02:28.906Z,51.73
2019-02-21T07:04:57.467Z,53.60
2019-02-21T07:07:26.054Z,48.80
2019-02-21T07:09:54.547Z,52.63
2019-02-21T07:12:23.048Z,48.63
2019-02-21T07:14:51.646Z,41.33
2019-02-21T07:17:20.201Z,44.27
2019-02-21T07:19:48.678Z,41.47
2019-02-21T07:22:17.939Z,54.07
2019-02-21T07:24:49.110Z,48.33
2019-02-21T07:27:17.664Z,41.33
2019-02-21T07:29:46.175Z,43.43
2019-02-21T07:32:14.827Z,38.07
2019-02-21T07:34:43.419Z,38.27
2019-02-21T07:37:18.506Z,39.27
2019-02-21T07:39:42.150Z,40.50
2019-02-21T07:42:10.781Z,39.67
2019-02-21T07:44:39.366Z,40.07
2019-02-21T07:47:07.940Z,39.97
2019-02-21T07:49:38.148Z,41.30
2019-02-21T07:52:07.015Z,43.33
2019-02-21T07:54:35.565Z,39.97
2019-02-21T07:57:08.394Z,41.63
2019-02-21T07:59:36.070Z,41.33
2019-02-21T08:02:04.707Z,40.90
2019-02-21T08:04:33.478Z,42.67
2019-02-21T08:07:03.199Z,41.30
2019-02-21T08:09:31.841Z,40.63
2019-02-21T08:12:00.391Z,45.53
2019-02-21T08:14:29.042Z,42.17
2019-02-21T08:16:57.606Z,42.40
2019-02-21T08:19:26.189Z,41.43
2019-02-21T08:21:54.790Z,43.33
2019-02-21T08:24:23.292Z,38.53
2019-02-21T08:26:51.863Z,36.57
2019-02-21T08:29:20.919Z,35.60
2019-02-21T08:31:49.614Z,34.40
2019-02-21T08:34:19.808Z,36.70
2019-02-21T08:36:48.477Z,36.50
2019-02-21T08:39:16.971Z,37.40
2019-02-21T08:41:45.592Z,40.00
2019-02-21T08:44:14.132Z,38.27
2019-02-21T08:46:42.679Z,36.77
2019-02-21T08:49:11.263Z,76.80
2019-02-21T08:51:39.930Z,41.17
2019-02-21T08:54:08.565Z,38.90
2019-02-21T08:56:37.217Z,40.33
2019-02-21T08:59:05.949Z,42.97
2019-02-21T09:01:36.218Z,39.13
2019-02-21T09:04:10.932Z,38.47
2019-02-21T09:06:35.396Z,43.17
2019-02-21T09:09:05.123Z,41.50
2019-02-21T09:11:33.759Z,44.03
2019-02-21T09:14:02.440Z,41.90
2019-02-21T09:16:31.072Z,43.07
2019-02-21T09:18:59.700Z,43.90
2019-02-21T09:21:28.436Z,41.77
2019-02-21T09:23:57.071Z,44.33
2019-02-21T09:26:25.701Z,43.93
2019-02-21T09:28:54.289Z,41.70
2019-02-21T09:31:22.945Z,45.63
2019-02-21T09:33:51.499Z,43.47
2019-02-21T09:36:20.111Z,40.60
2019-02-21T09:38:50.333Z,43.70
2019-02-21T09:41:20.416Z,43.27
2019-02-21T09:43:52.838Z,42.53
2019-02-21T09:46:21.377Z,45.10
2019-02-21T09:48:49.938Z,43.13
2019-02-21T09:51:18.540Z,42.53
2019-02-21T09:53:48.616Z,38.03
2019-02-21T09:56:17.255Z,40.00
2019-02-21T09:58:46.114Z,40.07
2019-02-21T10:01:14.727Z,40.40
2019-02-21T10:03:44.785Z,41.80
2019-02-21T10:06:13.446Z,38.60
2019-02-21T10:08:43.720Z,41.67
2019-02-21T10:11:12.201Z,41.43
2019-02-21T10:13:43.697Z,38.97
2019-02-21T10:16:12.334Z,37.20
2019-02-21T10:18:40.962Z,36.47
2019-02-21T10:21:09.646Z,36.43
2019-02-21T10:23:38.269Z,34.83
2019-02-21T10:26:06.908Z,35.67
2019-02-21T10:28:37.038Z,35.47
2019-02-21T10:31:05.821Z,34.43
2019-02-21T10:33:34.452Z,30.53
2019-02-21T10:36:05.247Z,28.53
2019-02-21T10:38:33.745Z,30.53
2019-02-21T10:41:02.316Z,28.77
2019-02-21T10:43:30.909Z,29.07
2019-02-21T10:45:59.545Z,25.23
2019-02-21T10:48:28.137Z,24.73
2019-02-21T10:50:56.773Z,25.17
2019-02-21T10:53:25.491Z,27.80
2019-02-21T10:55:54.112Z,25.27
2019-02-21T10:58:23.041Z,23.90
2019-02-21T11:00:51.627Z,23.87
2019-02-21T11:03:20.269Z,26.37
2019-02-21T11:05:52.601Z,25.13
2019-02-21T11:08:21.245Z,28.17
2019-02-21T11:10:50.227Z,26.13
2019-02-21T11:13:18.849Z,23.13
2019-02-21T11:15:47.480Z,25.57
2019-02-21T11:18:16.216Z,22.37
2019-02-21T11:20:44.990Z,20.00
2019-02-21T11:23:13.556Z,17.97
2019-02-21T11:25:42.234Z,14.60
2019-02-21T11:28:10.894Z,7.10
2019-02-21T11:30:39.524Z,6.70
2019-02-21T11:33:08.567Z,6.37
2019-02-21T11:35:37.321Z,6.50
2019-02-21T11:38:06.132Z,6.90
2019-02-21T11:40:35.145Z,32.20
2019-02-21T11:43:04.111Z,8.20
2019-02-21T11:45:32.884Z,6.93
2019-02-21T11:48:01.656Z,7.13
2019-02-21T11:50:32.189Z,7.00
2019-02-21T11:53:00.818Z,6.97
2019-02-21T11:55:29.389Z,6.80
2019-02-21T11:57:58.078Z,7.27
2019-02-21T12:00:32.567Z,6.53
2019-02-21T12:03:01.064Z,7.30
2019-02-21T12:05:31.946Z,7.20
2019-02-21T12:08:00.170Z,6.83
2019-02-21T12:10:28.879Z,7.60
2019-02-21T12:12:57.466Z,7.30
2019-02-21T12:15:26.153Z,7.60
2019-02-21T12:17:55.887Z,7.53
2019-02-21T12:20:24.575Z,7.90
2019-02-21T12:22:53.224Z,14.80
2019-02-21T12:25:23.459Z,7.67
2019-02-21T12:27:52.197Z,7.90
2019-02-21T12:30:21.237Z,8.10
2019-02-21T12:32:49.948Z,8.53
2019-02-21T12:35:29.384Z,8.17
2019-02-21T12:37:49.051Z,8.30
2019-02-21T12:40:19.899Z,7.97
2019-02-21T12:42:48.506Z,7.10
2019-02-21T12:45:19.230Z,7.93
2019-02-21T12:47:52.867Z,8.40
2019-02-21T12:50:18.268Z,7.50
2019-02-21T12:52:46.928Z,8.00
2019-02-21T12:55:26.459Z,6.57
2019-02-21T12:57:46.003Z,7.10
2019-02-21T13:00:17.548Z,10.57
2019-02-21T13:02:46.297Z,7.47
2019-02-21T13:05:14.980Z,7.77
2019-02-21T13:07:43.558Z,7.50
2019-02-21T13:10:14.540Z,7.07
2019-02-21T13:12:45.871Z,7.70
2019-02-21T13:15:15.816Z,7.70
2019-02-21T13:17:45.665Z,7.03
2019-02-21T13:20:18.483Z,7.37
2019-02-21T13:22:47.102Z,6.93
2019-02-21T13:25:17.244Z,6.83
2019-02-21T13:27:45.981Z,7.43
2019-02-21T13:30:18.213Z,8.30
2019-02-21T13:32:47.039Z,11.17
2019-02-21T13:35:15.839Z,7.70
2019-02-21T13:37:44.463Z,7.30
2019-02-21T13:40:15.229Z,7.93
2019-02-21T13:42:44.151Z,6.60
2019-02-21T13:45:17.230Z,6.93
2019-02-21T13:47:45.337Z,6.87
2019-02-21T13:50:23.699Z,6.73
2019-02-21T13:52:51.285Z,6.33
2019-02-21T13:55:19.931Z,6.40
2019-02-21T13:57:48.604Z,6.50
2019-02-21T14:00:22.165Z,6.30
2019-02-21T14:02:50.809Z,6.43
2019-02-21T14:05:19.469Z,6.40
2019-02-21T14:07:49.754Z,6.23
2019-02-21T14:10:19.988Z,10.67
2019-02-21T14:12:48.669Z,8.13
2019-02-21T14:15:26.940Z,6.47
2019-02-21T14:17:55.576Z,9.50
2019-02-21T14:20:24.211Z,6.37
2019-02-21T14:22:55.452Z,6.67
2019-02-21T14:25:24.445Z,14.10
2019-02-21T14:27:53.029Z,7.40
2019-02-21T14:30:22.456Z,6.47
2019-02-21T14:32:51.136Z,6.97
2019-02-21T14:35:19.750Z,7.23
2019-02-21T14:37:48.889Z,7.47
2019-02-21T14:40:18.060Z,16.60
2019-02-21T14:42:46.702Z,11.97
2019-02-21T14:45:22.242Z,6.80
2019-02-21T14:47:50.882Z,6.40
2019-02-21T14:50:19.576Z,6.37
2019-02-21T14:52:48.283Z,6.73
2019-02-21T14:55:19.568Z,6.53
2019-02-21T14:57:48.202Z,7.53
2019-02-21T15:00:21.865Z,8.13
2019-02-21T15:02:51.971Z,8.10
2019-02-21T15:05:21.006Z,8.13
2019-02-21T15:07:51.144Z,8.77
2019-02-21T15:10:19.836Z,9.20
2019-02-21T15:12:48.468Z,8.50
2019-02-21T15:15:21.866Z,9.00
2019-02-21T15:17:49.915Z,7.80
2019-02-21T15:20:18.562Z,8.73
2019-02-21T15:22:47.535Z,8.27
2019-02-21T15:25:18.996Z,8.73
2019-02-21T15:27:49.125Z,8.30
2019-02-21T15:30:20.087Z,9.10
2019-02-21T15:32:50.181Z,8.87
2019-02-21T15:35:19.903Z,8.20
2019-02-21T15:37:49.517Z,8.40
2019-02-21T15:40:19.592Z,8.20
2019-02-21T15:42:48.281Z,8.80
2019-02-21T15:45:23.568Z,9.27
2019-02-21T15:47:50.171Z,9.03
2019-02-21T15:50:20.148Z,12.53
2019-02-21T15:52:49.262Z,9.90
2019-02-21T15:55:19.707Z,10.33
2019-02-21T15:57:48.484Z,9.57
2019-02-21T16:00:19.844Z,53.63
2019-02-21T16:02:48.496Z,17.00
2019-02-21T16:05:17.186Z,10.97
2019-02-21T16:07:45.815Z,10.40
2019-02-21T16:10:23.279Z,10.60
2019-02-21T16:12:52.357Z,15.73
2019-02-21T16:15:21.138Z,12.43
2019-02-21T16:17:50.009Z,20.63
2019-02-21T16:20:19.991Z,13.23
2019-02-21T16:22:48.644Z,11.00
2019-02-21T16:25:25.504Z,11.10
2019-02-21T16:27:55.455Z,11.37
2019-02-21T16:30:24.547Z,11.83
2019-02-21T16:32:53.144Z,13.50
2019-02-21T16:35:21.862Z,13.03
2019-02-21T16:37:50.527Z,15.13
2019-02-21T16:40:20.831Z,13.90
2019-02-21T16:42:49.495Z,12.47
2019-02-21T16:45:22.940Z,13.40
2019-02-21T16:47:51.709Z,12.07
2019-02-21T16:50:29.377Z,60.87
2019-02-21T16:52:50.704Z,19.53
2019-02-21T16:55:20.797Z,12.50
2019-02-21T16:57:49.422Z,12.07
2019-02-21T17:00:19.587Z,17.40
2019-02-21T17:02:48.322Z,16.83
2019-02-21T17:05:17.042Z,26.27
2019-02-21T17:07:45.760Z,21.47
2019-02-21T17:10:16.500Z,50.33
2019-02-21T17:12:45.241Z,49.23
2019-02-21T17:15:15.177Z,70.20
2019-02-21T17:17:43.883Z,53.87
2019-02-21T17:20:15.344Z,41.40
2019-02-21T17:22:44.672Z,34.93
2019-02-21T17:25:15.185Z,34.07
2019-02-21T17:27:45.108Z,34.20
2019-02-21T17:30:16.274Z,30.13
2019-02-21T17:32:44.955Z,34.87
2019-02-21T17:35:13.893Z,31.77
2019-02-21T17:37:42.527Z,34.07
2019-02-21T17:40:19.519Z,34.90
2019-02-21T17:42:48.221Z,34.17
2019-02-21T17:45:16.849Z,27.40
2019-02-21T17:47:45.443Z,29.37
2019-02-21T17:50:18.658Z,38.47
2019-02-21T17:52:47.290Z,36.50
2019-02-21T17:55:16.960Z,39.00
2019-02-21T17:57:45.728Z,25.43
2019-02-21T18:00:26.600Z,24.13
2019-02-21T18:02:58.051Z,24.20
2019-02-21T18:05:26.689Z,23.37
2019-02-21T18:07:55.357Z,22.00
2019-02-21T18:10:24.002Z,25.63
2019-02-21T18:12:52.627Z,28.63
2019-02-21T18:15:21.322Z,33.60
2019-02-21T18:17:49.970Z,44.83
2019-02-21T18:20:18.609Z,46.27
2019-02-21T18:22:49.337Z,39.93
2019-02-21T18:25:35.931Z,32.57
2019-02-21T18:28:04.764Z,29.93
2019-02-21T18:30:33.408Z,37.03
2019-02-21T18:33:03.680Z,58.13
2019-02-21T18:35:32.340Z,48.93
2019-02-21T18:38:01.048Z,43.67
2019-02-21T18:40:30.020Z,30.67
2019-02-21T18:42:58.686Z,31.87
2019-02-21T18:45:29.178Z,28.30
2019-02-21T18:47:57.845Z,30.50
2019-02-21T18:50:37.376Z,36.97
2019-02-21T18:52:57.008Z,31.67
2019-02-21T18:55:25.632Z,48.03
2019-02-21T18:57:54.312Z,36.40
2019-02-21T19:00:25.796Z,31.83
2019-02-21T19:02:54.447Z,31.03
2019-02-21T19:05:23.130Z,31.07
2019-02-21T19:08:00.891Z,31.60
2019-02-21T19:10:22.894Z,36.27
2019-02-21T19:12:51.683Z,33.57
2019-02-21T19:15:21.313Z,32.43
2019-02-21T19:17:49.949Z,34.60
2019-02-21T19:20:22.489Z,35.90
2019-02-21T19:22:51.392Z,33.90
2019-02-21T19:25:20.199Z,36.60
2019-02-21T19:27:49.196Z,40.97
2019-02-21T19:30:25.641Z,45.73
2019-02-21T19:32:54.366Z,46.93
2019-02-21T19:35:23.120Z,49.50
2019-02-21T19:37:51.775Z,51.73
2019-02-21T19:40:20.715Z,66.27
2019-02-21T19:42:49.474Z,53.80
2019-02-21T19:45:18.197Z,48.67
2019-02-21T19:47:47.092Z,51.33
2019-02-21T19:50:16.045Z,49.87
2019-02-21T19:52:44.694Z,53.47
2019-02-21T19:55:14.489Z,46.33
2019-02-21T19:57:43.293Z,46.87
2019-02-21T20:00:15.529Z,45.27
2019-02-21T20:02:44.223Z,46.63
2019-02-21T20:05:13.158Z,47.17
2019-02-21T20:07:41.898Z,49.70
2019-02-21T20:10:10.922Z,52.00
2019-02-21T20:12:39.596Z,51.00
2019-02-21T20:15:10.465Z,106.23
2019-02-21T20:17:39.223Z,131.57
2019-02-21T20:20:22.957Z,105.37
2019-02-21T20:22:53.270Z,112.77
2019-02-21T20:25:21.951Z,107.37
2019-02-21T20:27:50.589Z,120.00
2019-02-21T20:30:20.299Z,109.10
2019-02-21T20:32:49.312Z,108.13
2019-02-21T20:35:18.112Z,103.27
2019-02-21T20:37:47.188Z,102.67
2019-02-21T20:40:15.939Z,87.67
2019-02-21T20:42:44.675Z,75.73
2019-02-21T20:45:14.727Z,78.87
2019-02-21T20:47:43.444Z,77.70
2019-02-21T20:50:12.976Z,84.23
2019-02-21T20:52:42.075Z,88.23
2019-02-21T20:55:11.672Z,83.10
2019-02-21T20:57:40.569Z,85.90
2019-02-21T21:00:17.856Z,78.03
2019-02-21T21:02:47.599Z,76.00
2019-02-21T21:05:16.870Z,82.03
2019-02-21T21:07:45.603Z,80.87
2019-02-21T21:10:16.048Z,85.77
2019-02-21T21:12:44.857Z,79.87
2019-02-21T21:15:14.843Z,82.67
2019-02-21T21:17:43.747Z,92.83
2019-02-21T21:20:17.452Z,84.53
2019-02-21T21:22:46.787Z,93.43
2019-02-21T21:25:17.202Z,92.80
2019-02-21T21:27:45.964Z,92.07
2019-02-21T21:30:16.664Z,81.90
2019-02-21T21:32:45.460Z,89.93
2019-02-21T21:35:14.595Z,89.17
2019-02-21T21:37:43.367Z,92.37
2019-02-21T21:40:14.905Z,80.97
2019-02-21T21:42:43.951Z,84.03
2019-02-21T21:45:18.102Z,78.93
2019-02-21T21:47:48.177Z,84.93
2019-02-21T21:50:18.836Z,80.83
2019-02-21T21:52:47.529Z,79.30
2019-02-21T21:55:16.258Z,81.43
2019-02-21T21:57:45.447Z,73.40
2019-02-21T22:00:18.131Z,66.47
2019-02-21T22:02:47.091Z,59.70
2019-02-21T22:05:15.928Z,68.43
2019-02-21T22:07:44.784Z,66.30
2019-02-21T22:10:14.379Z,64.23
2019-02-21T22:12:43.992Z,69.53
2019-02-21T22:15:20.445Z,65.40
2019-02-21T22:17:49.120Z,66.80
2019-02-21T22:20:17.842Z,72.73
2019-02-21T22:22:46.614Z,66.73
2019-02-21T22:25:15.462Z,66.27
2019-02-21T22:27:44.138Z,62.90
2019-02-21T22:30:19.888Z,62.47
2019-02-21T22:32:49.005Z,51.83
2019-02-21T22:35:17.764Z,56.97
2019-02-21T22:37:46.398Z,47.83
2019-02-21T22:40:17.487Z,54.03
2019-02-21T22:42:46.288Z,53.43
2019-02-21T22:45:15.163Z,55.80
2019-02-21T22:47:43.876Z,47.90
2019-02-21T22:50:15.284Z,52.73
2019-02-21T22:52:44.077Z,51.70
2019-02-21T22:55:12.692Z,54.73
2019-02-21T22:57:41.343Z,52.80
2019-02-21T23:00:22.318Z,49.03
2019-02-21T23:02:50.978Z,52.67
2019-02-21T23:05:44.759Z,45.07
2019-02-21T23:08:19.145Z,49.37
2019-02-21T23:10:47.838Z,41.03
2019-02-21T23:13:16.785Z,50.17
2019-02-21T23:15:47.060Z,45.00
2019-02-21T23:18:17.319Z,43.43
2019-02-21T23:20:45.995Z,42.33
2019-02-21T23:23:14.639Z,42.57
2019-02-21T23:25:43.282Z,42.73
2019-02-21T23:28:12.034Z,45.37
2019-02-21T23:30:40.725Z,40.03
2019-02-21T23:33:09.425Z,39.97
2019-02-21T23:35:38.118Z,41.90
2019-02-21T23:38:07.112Z,41.60
2019-02-21T23:40:37.049Z,43.73
2019-02-21T23:43:05.889Z,43.40
2019-02-21T23:45:34.685Z,44.63
2019-02-21T23:48:03.404Z,45.77
2019-02-21T23:50:32.081Z,43.77
2019-02-21T23:53:00.655Z,48.20
2019-02-21T23:55:29.204Z,46.00
2019-02-21T23:57:57.863Z,47.00
